Disclaimer

Please do not use the information listed here in-flight or in-navigation, as they are not provided to us by the airports but are provided by volunteers, so they might be outdated.

Search


Regions


Airport information page

Radio informations:
Tower (TWR) - 118.45 MHz
Automatic Terminal Information Service (ATIS) - 127.775 MHz
Approach (APP) - 119.2 MHz

Airport informations:
Latitude: 22° 20' 34.91" S
Longitude: 041° 45' 57.72" W
Elevation: 8 feet - 2 meters
Operating hours: 24 hour operations
Operating agency: Civil government, landing fees and diplomatic clearance may be required
Timezone: UTC-3(-2DT)
Fuel: Jet A1, without icing nhibitor.

Runway information:
06/24 - 3937 x 98 feet< - >1200 x 30 meters

Recent METARs:
SBME 201900Z 22006KT 6000 OVC015 21/18 Q1018
SBME 201900Z 22006KT 6000 OVC015 21/18 Q1018
SBME 201900Z 22006KT 6000 OVC015 21/18 Q1018

Airport on the map: